createdAt,value
2018-09-17T00:00:22.770Z,27.03
2018-09-17T00:01:22.779Z,26.97
2018-09-17T00:02:22.783Z,26.99
2018-09-17T00:03:22.791Z,27.00
2018-09-17T00:04:22.798Z,27.02
2018-09-17T00:05:22.802Z,27.09
2018-09-17T00:06:22.809Z,27.07
2018-09-17T00:07:22.815Z,27.06
2018-09-17T00:08:22.822Z,27.09
2018-09-17T00:09:22.827Z,26.99
2018-09-17T00:10:22.834Z,27.03
2018-09-17T00:11:22.841Z,27.07
2018-09-17T00:12:22.850Z,27.04
2018-09-17T00:13:22.853Z,27.07
2018-09-17T00:14:22.860Z,26.97
2018-09-17T00:15:22.868Z,27.03
2018-09-17T00:16:22.872Z,27.02
2018-09-17T00:17:22.878Z,27.06
2018-09-17T00:18:22.886Z,27.07
2018-09-17T00:19:22.892Z,27.03
2018-09-17T00:20:22.897Z,27.09
2018-09-17T00:21:22.910Z,26.99
2018-09-17T00:22:22.910Z,27.12
2018-09-17T00:23:22.914Z,27.09
2018-09-17T00:24:22.923Z,27.02
2018-09-17T00:25:22.930Z,27.07
2018-09-17T00:26:22.941Z,27.12
2018-09-17T00:27:22.946Z,26.99
2018-09-17T00:28:22.950Z,27.06
2018-09-17T00:29:22.955Z,27.03
2018-09-17T00:30:22.962Z,27.12
2018-09-17T00:31:22.968Z,26.99
2018-09-17T00:32:22.974Z,27.10
2018-09-17T00:33:22.980Z,27.12
2018-09-17T00:34:22.986Z,27.06
2018-09-17T00:35:22.995Z,27.10
2018-09-17T00:36:23.000Z,27.12
2018-09-17T00:37:23.008Z,27.10
2018-09-17T00:38:23.015Z,27.06
2018-09-17T00:39:23.019Z,27.10
2018-09-17T00:40:23.030Z,27.06
2018-09-17T00:41:23.032Z,27.07
2018-09-17T00:42:23.107Z,27.06
2018-09-17T00:43:23.052Z,27.12
2018-09-17T00:44:23.054Z,27.12
2018-09-17T00:45:23.058Z,27.04
2018-09-17T00:46:23.061Z,27.02
2018-09-17T00:47:23.074Z,27.09
2018-09-17T00:48:23.076Z,27.12
2018-09-17T00:49:23.082Z,27.09
2018-09-17T00:50:23.093Z,27.09
2018-09-17T00:51:23.093Z,27.03
2018-09-17T00:52:23.101Z,27.06
2018-09-17T00:53:23.107Z,27.07
2018-09-17T00:54:23.116Z,27.04
2018-09-17T00:55:23.122Z,27.09
2018-09-17T00:56:23.128Z,27.13
2018-09-17T00:57:23.134Z,27.13
2018-09-17T00:58:23.140Z,27.07
2018-09-17T00:59:23.147Z,27.09
2018-09-17T01:00:23.151Z,27.14
2018-09-17T01:01:23.160Z,27.10
2018-09-17T01:02:23.172Z,27.10
2018-09-17T01:03:23.174Z,27.10
2018-09-17T01:04:23.177Z,27.09
2018-09-17T01:05:23.184Z,27.07
2018-09-17T01:06:23.192Z,27.07
2018-09-17T01:07:23.249Z,27.04
2018-09-17T01:08:23.205Z,27.09
2018-09-17T01:09:23.213Z,27.12
2018-09-17T01:10:23.216Z,27.12
2018-09-17T01:11:23.248Z,27.09
2018-09-17T01:12:23.229Z,27.17
2018-09-17T01:13:23.236Z,27.10
2018-09-17T01:14:23.242Z,27.12
2018-09-17T01:15:23.249Z,27.12
2018-09-17T01:16:23.270Z,27.13
2018-09-17T01:17:23.261Z,27.13
2018-09-17T01:18:23.268Z,27.09
2018-09-17T01:19:23.275Z,27.12
2018-09-17T01:20:23.281Z,27.04
2018-09-17T01:21:23.287Z,27.06
2018-09-17T01:22:23.306Z,27.09
2018-09-17T01:23:23.301Z,27.12
2018-09-17T01:24:23.313Z,27.12
2018-09-17T01:25:23.312Z,27.06
2018-09-17T01:26:23.318Z,27.06
2018-09-17T01:27:23.330Z,27.13
2018-09-17T01:28:23.371Z,27.12
2018-09-17T01:29:23.340Z,27.09
2018-09-17T01:30:23.406Z,27.10
2018-09-17T01:31:23.351Z,27.10
2018-09-17T01:32:23.423Z,27.09
2018-09-17T01:33:23.366Z,27.13
2018-09-17T01:34:23.372Z,27.13
2018-09-17T01:35:23.378Z,27.10
2018-09-17T01:36:23.390Z,27.09
2018-09-17T01:37:23.397Z,27.12
2018-09-17T01:38:23.395Z,27.13
2018-09-17T01:39:23.402Z,27.03
2018-09-17T01:40:23.409Z,27.13
2018-09-17T01:41:23.415Z,27.13
2018-09-17T01:42:23.420Z,27.10
2018-09-17T01:43:23.431Z,27.04
2018-09-17T01:44:23.434Z,27.10
2018-09-17T01:45:23.441Z,27.09
2018-09-17T01:46:23.487Z,27.13
2018-09-17T01:47:23.453Z,27.04
2018-09-17T01:48:23.459Z,27.10
2018-09-17T01:49:23.465Z,27.13
2018-09-17T01:50:23.472Z,27.10
2018-09-17T01:51:23.478Z,27.10
2018-09-17T01:52:23.487Z,27.06
2018-09-17T01:53:23.492Z,27.09
2018-09-17T01:54:23.501Z,27.10
2018-09-17T01:55:23.514Z,27.04
2018-09-17T01:56:23.510Z,27.12
2018-09-17T01:57:23.522Z,27.12
2018-09-17T01:58:23.528Z,27.03
2018-09-17T01:59:23.530Z,27.17
2018-09-17T02:00:23.536Z,27.09
2018-09-17T02:01:23.541Z,27.06
2018-09-17T02:02:23.551Z,27.10
2018-09-17T02:03:23.554Z,27.12
2018-09-17T02:04:23.561Z,27.14
2018-09-17T02:05:23.567Z,27.13
2018-09-17T02:06:23.575Z,27.13
2018-09-17T02:07:23.580Z,27.09
2018-09-17T02:08:23.592Z,27.09
2018-09-17T02:09:23.594Z,27.09
2018-09-17T02:10:23.600Z,27.13
2018-09-17T02:11:23.608Z,27.09
2018-09-17T02:12:23.622Z,27.13
2018-09-17T02:13:23.627Z,27.09
2018-09-17T02:14:23.626Z,27.12
2018-09-17T02:15:23.634Z,27.06
2018-09-17T02:16:23.641Z,27.10
2018-09-17T02:17:23.647Z,27.07
2018-09-17T02:18:23.653Z,27.06
2018-09-17T02:19:23.658Z,26.95
2018-09-17T02:20:23.664Z,26.92
2018-09-17T02:21:23.670Z,26.94
2018-09-17T02:22:23.677Z,26.94
2018-09-17T02:23:23.684Z,26.89
2018-09-17T02:24:23.689Z,26.97
2018-09-17T02:25:23.699Z,26.91
2018-09-17T02:26:23.705Z,26.91
2018-09-17T02:27:23.709Z,26.91
2018-09-17T02:28:23.715Z,26.85
2018-09-17T02:29:23.722Z,26.92
2018-09-17T02:30:23.725Z,26.84
2018-09-17T02:31:23.735Z,26.88
2018-09-17T02:32:23.741Z,26.85
2018-09-17T02:33:23.747Z,26.82
2018-09-17T02:34:23.755Z,26.84
2018-09-17T02:35:23.762Z,26.89
2018-09-17T02:36:23.769Z,26.76
2018-09-17T02:37:23.773Z,26.76
2018-09-17T02:38:23.780Z,26.81
2018-09-17T02:39:23.786Z,26.80
2018-09-17T02:40:23.792Z,26.84
2018-09-17T02:41:23.802Z,26.73
2018-09-17T02:42:23.805Z,26.75
2018-09-17T02:43:23.815Z,26.76
2018-09-17T02:44:23.817Z,26.80
2018-09-17T02:45:23.824Z,26.73
2018-09-17T02:46:23.833Z,26.76
2018-09-17T02:47:23.837Z,26.75
2018-09-17T02:48:23.859Z,26.70
2018-09-17T02:49:23.849Z,26.72
2018-09-17T02:50:23.855Z,26.72
2018-09-17T02:51:23.861Z,26.73
2018-09-17T02:52:23.868Z,26.73
2018-09-17T02:53:23.935Z,26.73
2018-09-17T02:54:23.881Z,26.72
2018-09-17T02:55:23.888Z,26.80
2018-09-17T02:56:23.893Z,26.75
2018-09-17T02:57:23.901Z,26.73
2018-09-17T02:58:23.910Z,26.70
2018-09-17T02:59:23.913Z,26.69
2018-09-17T03:00:23.919Z,26.76
2018-09-17T03:01:23.940Z,26.75
2018-09-17T03:02:23.931Z,26.69
2018-09-17T03:03:23.938Z,26.63
2018-09-17T03:04:23.943Z,26.60
2018-09-17T03:05:23.949Z,26.62
2018-09-17T03:06:23.958Z,26.57
2018-09-17T03:07:23.962Z,26.55
2018-09-17T03:08:23.983Z,26.60
2018-09-17T03:09:23.974Z,26.55
2018-09-17T03:10:23.981Z,26.57
2018-09-17T03:11:23.986Z,26.57
2018-09-17T03:12:23.994Z,26.54
2018-09-17T03:13:23.999Z,26.62
2018-09-17T03:14:24.006Z,26.67
2018-09-17T03:15:24.013Z,26.54
2018-09-17T03:16:24.019Z,26.50
2018-09-17T03:17:24.025Z,26.54
2018-09-17T03:18:24.033Z,26.55
2018-09-17T03:19:24.037Z,26.54
2018-09-17T03:20:24.043Z,26.57
2018-09-17T03:21:24.049Z,26.62
2018-09-17T03:22:24.063Z,26.54
2018-09-17T03:23:24.066Z,26.62
2018-09-17T03:24:24.084Z,26.50
2018-09-17T03:25:24.083Z,26.55
2018-09-17T03:26:24.083Z,26.48
2018-09-17T03:27:24.085Z,26.62
2018-09-17T03:28:24.092Z,26.48
2018-09-17T03:29:24.099Z,26.55
2018-09-17T03:30:24.114Z,26.50
2018-09-17T03:31:24.130Z,26.55
2018-09-17T03:32:24.117Z,26.48
2018-09-17T03:33:24.123Z,26.48
2018-09-17T03:34:24.136Z,26.55
2018-09-17T03:35:24.137Z,26.55
2018-09-17T03:36:24.143Z,26.54
2018-09-17T03:37:24.148Z,26.52
2018-09-17T03:38:24.155Z,26.52
2018-09-17T03:39:24.163Z,26.55
2018-09-17T03:40:24.166Z,26.48
2018-09-17T03:41:24.176Z,26.52
2018-09-17T03:42:24.179Z,26.51
2018-09-17T03:43:24.190Z,26.50
2018-09-17T03:44:24.196Z,26.48
2018-09-17T03:45:24.198Z,26.47
2018-09-17T03:46:24.206Z,26.54
2018-09-17T03:47:24.214Z,26.50
2018-09-17T03:48:24.216Z,26.54
2018-09-17T03:49:24.222Z,26.48
2018-09-17T03:50:24.228Z,26.51
2018-09-17T03:51:24.238Z,26.48
2018-09-17T03:52:24.241Z,26.52
2018-09-17T03:53:24.247Z,26.51
2018-09-17T03:54:24.277Z,26.50
2018-09-17T03:55:24.260Z,26.52
2018-09-17T03:56:24.265Z,26.54
2018-09-17T03:57:24.272Z,26.51
2018-09-17T03:58:24.278Z,26.51
2018-09-17T03:59:24.285Z,26.50
2018-09-17T04:00:24.290Z,26.44
2018-09-17T04:01:24.295Z,26.51
2018-09-17T04:02:24.304Z,26.52
2018-09-17T04:03:24.310Z,26.54
2018-09-17T04:04:24.314Z,26.48
2018-09-17T04:05:24.321Z,26.50
2018-09-17T04:06:24.333Z,26.40
2018-09-17T04:07:24.334Z,26.51
2018-09-17T04:08:24.339Z,26.47
2018-09-17T04:09:24.348Z,26.43
2018-09-17T04:10:24.351Z,26.50
2018-09-17T04:11:24.357Z,26.51
2018-09-17T04:12:24.364Z,26.50
2018-09-17T04:13:24.371Z,26.48
2018-09-17T04:14:24.379Z,26.51
2018-09-17T04:15:24.383Z,26.50
2018-09-17T04:16:24.395Z,26.50
2018-09-17T04:17:24.395Z,26.50
2018-09-17T04:18:24.402Z,26.48
2018-09-17T04:19:24.407Z,26.51
2018-09-17T04:20:24.414Z,26.48
2018-09-17T04:21:24.421Z,26.50
2018-09-17T04:22:24.425Z,26.54
2018-09-17T04:23:24.432Z,26.48
2018-09-17T04:24:24.436Z,26.39
2018-09-17T04:25:24.446Z,26.48
2018-09-17T04:26:24.452Z,26.47
2018-09-17T04:27:24.458Z,26.47
2018-09-17T04:28:24.460Z,26.45
2018-09-17T04:29:24.475Z,26.50
2018-09-17T04:30:24.475Z,26.47
2018-09-17T04:31:24.485Z,26.44
2018-09-17T04:32:24.488Z,26.48
2018-09-17T04:33:24.503Z,26.47
2018-09-17T04:34:24.499Z,26.45
2018-09-17T04:35:24.505Z,26.48
2018-09-17T04:36:24.512Z,26.54
2018-09-17T04:37:24.508Z,26.50
2018-09-17T04:38:24.514Z,26.55
2018-09-17T04:39:24.525Z,26.57
2018-09-17T04:40:24.526Z,26.54
2018-09-17T04:41:24.534Z,26.55
2018-09-17T04:42:24.540Z,26.65
2018-09-17T04:43:24.545Z,26.63
2018-09-17T04:44:24.551Z,26.62
2018-09-17T04:45:24.556Z,26.73
2018-09-17T04:46:24.561Z,26.73
2018-09-17T04:47:24.590Z,26.76
2018-09-17T04:48:24.575Z,26.69
2018-09-17T04:49:24.581Z,26.76
2018-09-17T04:50:24.589Z,26.70
2018-09-17T04:51:24.600Z,26.76
2018-09-17T04:52:24.602Z,26.84
2018-09-17T04:53:24.606Z,26.80
2018-09-17T04:54:24.611Z,26.88
2018-09-17T04:55:24.621Z,26.87
2018-09-17T04:56:24.624Z,26.81
2018-09-17T04:57:24.649Z,26.94
2018-09-17T04:58:24.637Z,26.92
2018-09-17T04:59:24.644Z,26.89
2018-09-17T05:00:24.648Z,27.03
2018-09-17T05:01:24.659Z,27.03
2018-09-17T05:02:24.669Z,27.09
2018-09-17T05:03:24.674Z,27.03
2018-09-17T05:04:24.675Z,27.07
2018-09-17T05:05:24.682Z,27.10
2018-09-17T05:06:24.688Z,27.09
2018-09-17T05:07:24.809Z,27.17
2018-09-17T05:08:24.700Z,27.13
2018-09-17T05:09:24.707Z,27.19
2018-09-17T05:10:24.714Z,27.19
2018-09-17T05:11:24.722Z,27.32
2018-09-17T05:12:24.727Z,27.25
2018-09-17T05:13:24.858Z,27.21
2018-09-17T05:14:24.739Z,27.32
2018-09-17T05:15:24.747Z,27.34
2018-09-17T05:16:24.756Z,27.31
2018-09-17T05:17:24.760Z,27.39
2018-09-17T05:18:24.766Z,27.29
2018-09-17T05:19:24.783Z,27.37
2018-09-17T05:20:24.778Z,27.31
2018-09-17T05:21:24.789Z,27.32
2018-09-17T05:22:24.792Z,27.37
2018-09-17T05:23:24.800Z,27.41
2018-09-17T05:24:24.805Z,27.43
2018-09-17T05:25:24.814Z,27.39
2018-09-17T05:26:24.817Z,27.43
2018-09-17T05:27:24.826Z,27.44
2018-09-17T05:28:24.832Z,27.46
2018-09-17T05:29:24.838Z,27.46
2018-09-17T05:30:24.846Z,27.49
2018-09-17T05:31:24.852Z,27.47
2018-09-17T05:32:24.864Z,27.55
2018-09-17T05:33:24.865Z,27.47
2018-09-17T05:34:24.873Z,27.47
2018-09-17T05:35:24.878Z,27.50
2018-09-17T05:36:24.885Z,27.51
2018-09-17T05:37:24.893Z,27.57
2018-09-17T05:38:24.898Z,27.57
2018-09-17T05:39:24.905Z,27.57
2018-09-17T05:40:24.915Z,27.66
2018-09-17T05:41:24.917Z,27.55
2018-09-17T05:42:24.925Z,27.55
2018-09-17T05:43:24.932Z,27.60
2018-09-17T05:44:24.994Z,27.63
2018-09-17T05:45:24.949Z,27.66
2018-09-17T05:46:24.958Z,27.66
2018-09-17T05:47:24.959Z,27.67
2018-09-17T05:48:24.966Z,27.60
2018-09-17T05:49:24.972Z,27.67
2018-09-17T05:50:24.982Z,27.63
2018-09-17T05:51:24.987Z,27.72
2018-09-17T05:52:24.992Z,27.67
2018-09-17T05:53:24.999Z,27.66
2018-09-17T05:54:25.017Z,27.75
2018-09-17T05:55:25.018Z,27.72
2018-09-17T05:56:25.020Z,27.74
2018-09-17T05:57:25.028Z,27.75
2018-09-17T05:58:25.034Z,27.72
2018-09-17T05:59:25.071Z,27.70
2018-09-17T06:00:25.051Z,27.75
2018-09-17T06:01:25.058Z,27.81
2018-09-17T06:02:25.061Z,27.81
2018-09-17T06:03:25.080Z,27.79
2018-09-17T06:04:25.078Z,27.77
2018-09-17T06:05:25.150Z,27.77
2018-09-17T06:06:25.088Z,27.79
2018-09-17T06:07:25.096Z,27.85
2018-09-17T06:08:25.105Z,27.84
2018-09-17T06:09:25.106Z,27.92
2018-09-17T06:10:25.120Z,27.82
2018-09-17T06:11:25.121Z,27.85
2018-09-17T06:12:25.129Z,27.78
2018-09-17T06:13:25.139Z,27.79
2018-09-17T06:14:25.191Z,27.88
2018-09-17T06:15:25.150Z,27.96
2018-09-17T06:16:25.156Z,27.96
2018-09-17T06:17:25.229Z,27.84
2018-09-17T06:18:25.170Z,27.84
2018-09-17T06:19:25.188Z,27.92
2018-09-17T06:20:25.185Z,27.93
2018-09-17T06:21:25.190Z,27.90
2018-09-17T06:22:25.200Z,27.90
2018-09-17T06:23:25.264Z,27.90
2018-09-17T06:24:25.213Z,27.93
2018-09-17T06:25:25.220Z,27.96
2018-09-17T06:26:25.263Z,27.92
2018-09-17T06:27:25.234Z,27.99
2018-09-17T06:28:25.239Z,27.93
2018-09-17T06:29:25.247Z,27.90
2018-09-17T06:30:25.253Z,27.94
2018-09-17T06:31:25.264Z,27.94
2018-09-17T06:32:25.267Z,27.92
2018-09-17T06:33:25.274Z,27.94
2018-09-17T06:34:25.287Z,27.96
2018-09-17T06:35:25.288Z,28.02
2018-09-17T06:36:25.296Z,27.96
2018-09-17T06:37:25.302Z,27.97
2018-09-17T06:38:25.311Z,27.99
2018-09-17T06:39:25.316Z,27.99
2018-09-17T06:40:25.323Z,28.00
2018-09-17T06:41:25.335Z,27.94
2018-09-17T06:42:25.337Z,28.02
2018-09-17T06:43:25.346Z,27.94
2018-09-17T06:44:25.358Z,27.94
2018-09-17T06:45:25.359Z,27.94
2018-09-17T06:46:25.365Z,27.94
2018-09-17T06:47:25.372Z,28.06
2018-09-17T06:48:25.383Z,27.92
2018-09-17T06:49:25.389Z,27.97
2018-09-17T06:50:25.393Z,27.99
2018-09-17T06:51:25.444Z,28.07
2018-09-17T06:52:25.406Z,28.07
2018-09-17T06:53:25.414Z,28.07
2018-09-17T06:54:25.422Z,28.06
2018-09-17T06:55:25.430Z,28.07
2018-09-17T06:56:25.434Z,27.96
2018-09-17T06:57:25.445Z,28.06
2018-09-17T06:58:25.449Z,28.07
2018-09-17T06:59:25.458Z,28.06
2018-09-17T07:00:25.465Z,28.07
2018-09-17T07:01:25.471Z,28.06
2018-09-17T07:02:25.479Z,28.02
2018-09-17T07:03:25.485Z,27.96
2018-09-17T07:04:25.492Z,28.02
2018-09-17T07:05:25.502Z,28.03
2018-09-17T07:06:25.506Z,28.00
2018-09-17T07:07:25.517Z,28.00
2018-09-17T07:08:25.520Z,28.00
2018-09-17T07:09:25.525Z,28.04
2018-09-17T07:10:25.540Z,28.11
2018-09-17T07:11:25.545Z,28.06
2018-09-17T07:12:25.580Z,28.06
2018-09-17T07:13:25.556Z,28.03
2018-09-17T07:14:25.562Z,28.12
2018-09-17T07:15:25.572Z,28.09
2018-09-17T07:16:25.593Z,28.14
2018-09-17T07:17:25.582Z,28.04
2018-09-17T07:18:25.590Z,28.12
2018-09-17T07:19:25.702Z,28.15
2018-09-17T07:20:25.605Z,28.17
2018-09-17T07:21:25.612Z,28.15
2018-09-17T07:22:25.648Z,28.00
2018-09-17T07:23:25.628Z,28.15
2018-09-17T07:24:25.633Z,28.17
2018-09-17T07:25:25.645Z,28.06
2018-09-17T07:26:25.653Z,28.18
2018-09-17T07:27:25.667Z,28.18
2018-09-17T07:28:25.663Z,28.12
2018-09-17T07:29:25.710Z,28.18
2018-09-17T07:30:25.680Z,28.11
2018-09-17T07:31:25.685Z,28.18
2018-09-17T07:32:25.690Z,28.18
2018-09-17T07:33:25.696Z,28.19
2018-09-17T07:34:25.705Z,28.21
2018-09-17T07:35:25.711Z,28.18
2018-09-17T07:36:25.855Z,28.21
2018-09-17T07:37:25.724Z,28.15
2018-09-17T07:38:25.732Z,28.22
2018-09-17T07:39:25.740Z,28.15
2018-09-17T07:40:25.746Z,28.17
2018-09-17T07:41:25.752Z,28.21
2018-09-17T07:42:25.789Z,28.15
2018-09-17T07:43:25.768Z,28.18
2018-09-17T07:44:25.775Z,28.19
2018-09-17T07:45:25.782Z,28.19
2018-09-17T07:46:25.789Z,28.30
2018-09-17T07:47:25.796Z,28.29
2018-09-17T07:48:25.802Z,28.33
2018-09-17T07:49:25.810Z,28.31
2018-09-17T07:50:25.828Z,28.34
2018-09-17T07:51:25.831Z,28.29
2018-09-17T07:52:25.832Z,28.31
2018-09-17T07:53:25.846Z,28.29
2018-09-17T07:54:25.852Z,28.30
2018-09-17T07:55:25.854Z,28.31
2018-09-17T07:56:25.861Z,28.33
2018-09-17T07:57:25.869Z,28.36
2018-09-17T07:58:25.875Z,28.39
2018-09-17T07:59:25.891Z,28.41
2018-09-17T08:00:25.891Z,28.34
2018-09-17T08:01:25.901Z,28.40
2018-09-17T08:02:25.903Z,28.39
2018-09-17T08:03:25.908Z,28.37
2018-09-17T08:04:25.919Z,28.37
2018-09-17T08:05:25.925Z,28.40
2018-09-17T08:06:25.937Z,28.41
2018-09-17T08:07:25.944Z,28.43
2018-09-17T08:08:25.946Z,28.43
2018-09-17T08:09:25.954Z,28.39
2018-09-17T08:10:25.969Z,28.37
2018-09-17T08:11:25.974Z,28.36
2018-09-17T08:12:25.978Z,28.40
2018-09-17T08:13:25.990Z,28.33
2018-09-17T08:14:25.997Z,28.46
2018-09-17T08:15:26.003Z,28.36
2018-09-17T08:16:26.003Z,28.41
2018-09-17T08:17:26.015Z,28.40
2018-09-17T08:18:26.021Z,28.46
2018-09-17T08:19:26.028Z,28.52
2018-09-17T08:20:26.034Z,28.48
2018-09-17T08:21:26.040Z,28.54
2018-09-17T08:22:26.049Z,28.51
2018-09-17T08:23:26.056Z,28.44
2018-09-17T08:24:26.076Z,28.40
2018-09-17T08:25:26.120Z,28.46
2018-09-17T08:26:26.077Z,28.51
2018-09-17T08:27:26.089Z,28.49
2018-09-17T08:28:26.092Z,28.46
2018-09-17T08:29:26.100Z,28.40
2018-09-17T08:30:26.107Z,28.48
2018-09-17T08:31:26.196Z,28.43
2018-09-17T08:32:26.153Z,28.54
2018-09-17T08:33:26.129Z,28.46
2018-09-17T08:34:26.136Z,28.49
2018-09-17T08:35:26.150Z,28.41
2018-09-17T08:36:26.155Z,28.43
2018-09-17T08:37:26.158Z,28.46
2018-09-17T08:38:26.166Z,28.43
2018-09-17T08:39:26.172Z,28.41
2018-09-17T08:40:26.179Z,28.48
2018-09-17T08:41:26.187Z,28.48
2018-09-17T08:42:26.194Z,28.44
2018-09-17T08:43:26.200Z,28.43
2018-09-17T08:44:26.208Z,28.49
2018-09-17T08:45:26.219Z,28.43
2018-09-17T08:46:26.243Z,28.51
2018-09-17T08:47:26.232Z,28.48
2018-09-17T08:48:26.239Z,28.54
2018-09-17T08:49:26.245Z,28.40
2018-09-17T08:50:26.252Z,28.55
2018-09-17T08:51:26.263Z,28.52
2018-09-17T08:52:26.301Z,28.46
2018-09-17T08:53:26.277Z,28.56
2018-09-17T08:54:26.285Z,28.58
2018-09-17T08:55:26.292Z,28.59
2018-09-17T08:56:26.299Z,28.58
2018-09-17T08:57:26.304Z,28.61
2018-09-17T08:58:26.312Z,28.55
2018-09-17T08:59:26.320Z,28.48
2018-09-17T09:00:26.326Z,28.56
2018-09-17T09:01:26.335Z,28.64
2018-09-17T09:02:26.342Z,28.58
2018-09-17T09:03:26.349Z,28.62
2018-09-17T09:04:26.364Z,28.59
2018-09-17T09:05:26.363Z,28.61
2018-09-17T09:06:26.373Z,28.56
2018-09-17T09:07:26.379Z,28.64
2018-09-17T09:08:26.414Z,28.56
2018-09-17T09:09:26.399Z,28.59
2018-09-17T09:10:26.400Z,28.54
2018-09-17T09:11:26.411Z,28.61
2018-09-17T09:12:26.424Z,28.59
2018-09-17T09:13:26.430Z,28.55
2018-09-17T09:14:26.432Z,28.61
2018-09-17T09:15:26.438Z,28.61
2018-09-17T09:16:26.498Z,28.62
2018-09-17T09:17:26.486Z,28.59
2018-09-17T09:18:26.461Z,28.58
2018-09-17T09:19:26.470Z,28.56
2018-09-17T09:20:26.474Z,28.54
2018-09-17T09:21:26.482Z,28.58
2018-09-17T09:22:26.492Z,28.58
2018-09-17T09:23:26.497Z,28.59
2018-09-17T09:24:26.502Z,28.59
2018-09-17T09:25:26.512Z,28.46
2018-09-17T09:26:26.518Z,28.56
2018-09-17T09:27:26.528Z,28.48
2018-09-17T09:28:26.536Z,28.62
2018-09-17T09:29:26.546Z,28.55
2018-09-17T09:30:26.549Z,28.54
2018-09-17T09:31:26.555Z,28.49
2018-09-17T09:32:26.563Z,28.37
2018-09-17T09:33:26.572Z,28.40
2018-09-17T09:34:26.578Z,28.46
2018-09-17T09:35:26.590Z,28.52
2018-09-17T09:36:26.590Z,28.48
2018-09-17T09:37:26.603Z,28.52
2018-09-17T09:38:26.611Z,28.48
2018-09-17T09:39:26.616Z,28.55
2018-09-17T09:40:26.629Z,28.55
2018-09-17T09:41:26.713Z,28.59
2018-09-17T09:42:26.637Z,28.56
2018-09-17T09:43:26.645Z,28.62
2018-09-17T09:44:26.652Z,28.58
2018-09-17T09:45:26.659Z,28.61
2018-09-17T09:46:26.683Z,28.59
2018-09-17T09:47:26.674Z,28.58
2018-09-17T09:48:26.681Z,28.59
2018-09-17T09:49:26.689Z,28.54
2018-09-17T09:50:26.697Z,28.52
2018-09-17T09:51:26.707Z,28.58
2018-09-17T09:52:26.712Z,28.64
2018-09-17T09:53:26.719Z,28.52
2018-09-17T09:54:26.726Z,28.61
2018-09-17T09:55:26.733Z,28.58
2018-09-17T09:56:26.742Z,28.67
2018-09-17T09:57:26.749Z,28.66
2018-09-17T09:58:26.756Z,28.66
2018-09-17T09:59:26.787Z,28.55
2018-09-17T10:00:26.773Z,28.66
2018-09-17T10:01:26.776Z,28.78
2018-09-17T10:02:26.786Z,28.73
2018-09-17T10:03:26.797Z,28.67
2018-09-17T10:04:26.799Z,28.71
2018-09-17T10:05:26.808Z,28.70
2018-09-17T10:06:26.815Z,28.71
2018-09-17T10:07:26.823Z,28.73
2018-09-17T10:08:26.831Z,28.68
2018-09-17T10:09:26.842Z,28.70
2018-09-17T10:10:26.848Z,28.74
2018-09-17T10:11:26.860Z,28.71
2018-09-17T10:12:26.860Z,28.67
2018-09-17T10:13:26.867Z,28.67
2018-09-17T10:14:26.875Z,28.73
2018-09-17T10:15:26.883Z,28.70
2018-09-17T10:16:26.888Z,28.73
2018-09-17T10:17:26.897Z,28.66
2018-09-17T10:18:26.906Z,28.76
2018-09-17T10:19:26.930Z,28.66
2018-09-17T10:20:26.926Z,28.61
2018-09-17T10:21:26.933Z,28.68
2018-09-17T10:22:26.937Z,28.64
2018-09-17T10:23:26.944Z,28.58
2018-09-17T10:24:26.960Z,28.67
2018-09-17T10:25:26.957Z,28.71
2018-09-17T10:26:26.966Z,28.64
2018-09-17T10:27:26.973Z,28.71
2018-09-17T10:28:26.980Z,28.64
2018-09-17T10:29:26.989Z,28.66
2018-09-17T10:30:26.997Z,28.70
2018-09-17T10:31:27.004Z,28.66
2018-09-17T10:32:27.012Z,28.61
2018-09-17T10:33:27.018Z,28.62
2018-09-17T10:34:27.026Z,28.62
2018-09-17T10:35:27.033Z,28.66
2018-09-17T10:36:27.040Z,28.70
2018-09-17T10:37:27.048Z,28.61
2018-09-17T10:38:27.055Z,28.76
2018-09-17T10:39:27.098Z,28.74
2018-09-17T10:40:27.074Z,28.64
2018-09-17T10:41:27.082Z,28.67
2018-09-17T10:42:27.086Z,28.66
2018-09-17T10:43:27.097Z,28.61
2018-09-17T10:44:27.099Z,28.68
2018-09-17T10:45:27.109Z,28.68
2018-09-17T10:46:27.118Z,28.68
2018-09-17T10:47:27.124Z,28.58
2018-09-17T10:48:27.132Z,28.64
2018-09-17T10:49:27.138Z,28.61
2018-09-17T10:50:27.144Z,28.71
2018-09-17T10:51:27.156Z,28.70
2018-09-17T10:52:27.162Z,28.62
2018-09-17T10:53:27.170Z,28.76
2018-09-17T10:54:27.176Z,28.67
2018-09-17T10:55:27.186Z,28.66
2018-09-17T10:56:27.190Z,28.68
2018-09-17T10:57:27.260Z,28.73
2018-09-17T10:58:27.352Z,28.64
2018-09-17T10:59:27.213Z,28.64
2018-09-17T11:00:27.223Z,28.71
2018-09-17T11:01:27.229Z,28.58
2018-09-17T11:02:27.236Z,28.64
2018-09-17T11:03:27.244Z,28.64
2018-09-17T11:04:27.249Z,28.64
2018-09-17T11:05:27.257Z,28.64
2018-09-17T11:06:27.264Z,28.58
2018-09-17T11:07:27.314Z,28.66
2018-09-17T11:08:27.282Z,28.71
2018-09-17T11:09:27.288Z,28.71
2018-09-17T11:10:27.293Z,28.66
2018-09-17T11:11:27.304Z,28.68
2018-09-17T11:12:27.309Z,28.68
2018-09-17T11:13:27.317Z,28.73
2018-09-17T11:14:27.325Z,28.71
2018-09-17T11:15:27.335Z,28.70
2018-09-17T11:16:27.340Z,28.73
2018-09-17T11:17:27.424Z,28.71
2018-09-17T11:18:27.355Z,28.74
2018-09-17T11:19:27.365Z,28.73
2018-09-17T11:20:27.370Z,28.76
2018-09-17T11:21:27.385Z,28.70
2018-09-17T11:22:27.386Z,28.76
2018-09-17T11:23:27.442Z,28.71
2018-09-17T11:24:27.402Z,28.73
2018-09-17T11:25:27.413Z,28.80
2018-09-17T11:26:27.417Z,28.77
2018-09-17T11:27:27.435Z,28.78
2018-09-17T11:28:27.430Z,28.74
2018-09-17T11:29:27.441Z,28.76
2018-09-17T11:30:27.450Z,28.78
2018-09-17T11:31:27.518Z,28.83
2018-09-17T11:32:27.466Z,28.81
2018-09-17T11:33:27.480Z,28.85
2018-09-17T11:34:27.476Z,28.83
2018-09-17T11:35:27.485Z,28.85
2018-09-17T11:36:27.494Z,28.85
2018-09-17T11:37:27.498Z,28.80
2018-09-17T11:38:27.507Z,28.89
2018-09-17T11:39:27.516Z,28.86
2018-09-17T11:40:27.521Z,28.88
2018-09-17T11:41:27.529Z,28.86
2018-09-17T11:42:27.538Z,28.86
2018-09-17T11:43:27.545Z,28.85
2018-09-17T11:44:27.555Z,28.93
2018-09-17T11:45:27.560Z,28.83
2018-09-17T11:46:27.567Z,28.90
2018-09-17T11:47:27.576Z,28.89
2018-09-17T11:48:27.668Z,28.86
2018-09-17T11:49:27.590Z,28.86
2018-09-17T11:50:27.599Z,28.93
2018-09-17T11:51:27.618Z,28.89
2018-09-17T11:52:27.615Z,28.92
2018-09-17T11:53:27.621Z,28.90
2018-09-17T11:54:27.629Z,28.88
2018-09-17T11:55:27.645Z,28.93
2018-09-17T11:56:27.643Z,28.92
2018-09-17T11:57:27.653Z,28.98
2018-09-17T11:58:27.663Z,28.93
2018-09-17T11:59:27.667Z,28.93
2018-09-17T12:00:27.676Z,29.00
2018-09-17T12:01:27.682Z,28.89
2018-09-17T12:02:27.689Z,28.96
2018-09-17T12:03:27.700Z,28.86
2018-09-17T12:04:27.709Z,28.90
2018-09-17T12:05:27.713Z,28.96
2018-09-17T12:06:27.721Z,28.89
2018-09-17T12:07:27.735Z,29.02
2018-09-17T12:08:27.754Z,28.98
2018-09-17T12:09:27.744Z,29.02
2018-09-17T12:10:27.752Z,28.96
2018-09-17T12:11:27.759Z,29.00
2018-09-17T12:12:27.767Z,28.96
2018-09-17T12:13:27.775Z,28.93
2018-09-17T12:14:27.826Z,28.88
2018-09-17T12:15:27.790Z,28.95
2018-09-17T12:16:27.798Z,28.92
2018-09-17T12:17:27.805Z,28.95
2018-09-17T12:18:27.814Z,28.92
2018-09-17T12:19:27.820Z,28.89
2018-09-17T12:20:27.834Z,28.89
2018-09-17T12:21:27.835Z,28.95
2018-09-17T12:22:27.849Z,28.95
2018-09-17T12:23:27.856Z,28.93
2018-09-17T12:24:27.856Z,28.96
2018-09-17T12:25:27.869Z,28.98
2018-09-17T12:26:27.892Z,28.89
2018-09-17T12:27:27.882Z,28.95
2018-09-17T12:28:27.888Z,28.96
2018-09-17T12:29:27.897Z,28.95
2018-09-17T12:30:27.905Z,29.02
2018-09-17T12:31:27.923Z,28.96
2018-09-17T12:32:27.920Z,29.00
2018-09-17T12:33:27.993Z,28.95
2018-09-17T12:34:27.937Z,28.96
2018-09-17T12:35:27.948Z,28.95
2018-09-17T12:36:27.951Z,28.90
2018-09-17T12:37:27.960Z,28.95
2018-09-17T12:38:28.002Z,28.95
2018-09-17T12:39:27.975Z,28.90
2018-09-17T12:40:28.000Z,28.92
2018-09-17T12:41:27.989Z,28.95
2018-09-17T12:42:27.998Z,29.02
2018-09-17T12:43:28.012Z,28.98
2018-09-17T12:44:28.015Z,28.89
2018-09-17T12:45:28.021Z,28.83
2018-09-17T12:46:28.029Z,28.98
2018-09-17T12:47:28.038Z,28.90
2018-09-17T12:48:28.043Z,28.92
2018-09-17T12:49:28.051Z,28.89
2018-09-17T12:50:28.070Z,28.95
2018-09-17T12:51:28.068Z,28.93
2018-09-17T12:52:28.074Z,28.98